sensor_id;sensor_type;location;lat;lon;timestamp;P1;durP1;ratioP1;P2;durP2;ratioP2
51877;SDS011;37911;51.526;11.536;2022-08-14T00:01:44;16.88;;;8.40;;
51877;SDS011;37911;51.526;11.536;2022-08-14T00:04:48;12.90;;;7.45;;
51877;SDS011;37911;51.526;11.536;2022-08-14T00:07:51;20.25;;;8.05;;
51877;SDS011;37911;51.526;11.536;2022-08-14T00:10:54;11.57;;;7.00;;
51877;SDS011;37911;51.526;11.536;2022-08-14T00:13:58;13.77;;;7.78;;
51877;SDS011;37911;51.526;11.536;2022-08-14T00:17:04;14.05;;;7.57;;
51877;SDS011;37911;51.526;11.536;2022-08-14T00:20:08;15.57;;;7.75;;
51877;SDS011;37911;51.526;11.536;2022-08-14T00:23:13;12.23;;;7.95;;
51877;SDS011;37911;51.526;11.536;2022-08-14T00:26:17;14.23;;;7.82;;
51877;SDS011;37911;51.526;11.536;2022-08-14T00:29:20;12.18;;;7.28;;
51877;SDS011;37911;51.526;11.536;2022-08-14T00:32:26;12.20;;;7.38;;
51877;SDS011;37911;51.526;11.536;2022-08-14T00:35:29;16.00;;;7.95;;
51877;SDS011;37911;51.526;11.536;2022-08-14T00:38:34;13.93;;;7.72;;
51877;SDS011;37911;51.526;11.536;2022-08-14T00:41:38;16.67;;;6.95;;
51877;SDS011;37911;51.526;11.536;2022-08-14T00:44:44;12.93;;;7.65;;
51877;SDS011;37911;51.526;11.536;2022-08-14T00:47:50;13.07;;;7.43;;
51877;SDS011;37911;51.526;11.536;2022-08-14T00:50:54;12.38;;;7.95;;
51877;SDS011;37911;51.526;11.536;2022-08-14T00:53:57;13.52;;;7.70;;
51877;SDS011;37911;51.526;11.536;2022-08-14T00:57:01;14.52;;;8.27;;
51877;SDS011;37911;51.526;11.536;2022-08-14T01:00:07;14.77;;;7.47;;
51877;SDS011;37911;51.526;11.536;2022-08-14T01:03:16;14.05;;;7.70;;
51877;SDS011;37911;51.526;11.536;2022-08-14T01:06:20;10.90;;;7.05;;
51877;SDS011;37911;51.526;11.536;2022-08-14T01:09:25;12.75;;;7.47;;
51877;SDS011;37911;51.526;11.536;2022-08-14T01:12:30;14.50;;;7.25;;
51877;SDS011;37911;51.526;11.536;2022-08-14T01:15:34;11.98;;;7.65;;
51877;SDS011;37911;51.526;11.536;2022-08-14T01:18:40;12.80;;;7.85;;
51877;SDS011;37911;51.526;11.536;2022-08-14T01:21:59;13.63;;;8.10;;
51877;SDS011;37911;51.526;11.536;2022-08-14T01:25:03;12.73;;;7.93;;
51877;SDS011;37911;51.526;11.536;2022-08-14T01:28:07;12.68;;;8.20;;
51877;SDS011;37911;51.526;11.536;2022-08-14T01:31:11;13.75;;;8.07;;
51877;SDS011;37911;51.526;11.536;2022-08-14T01:34:16;13.40;;;8.52;;
51877;SDS011;37911;51.526;11.536;2022-08-14T01:37:25;14.00;;;8.70;;
51877;SDS011;37911;51.526;11.536;2022-08-14T01:40:28;14.10;;;8.80;;
51877;SDS011;37911;51.526;11.536;2022-08-14T01:43:32;16.35;;;8.32;;
51877;SDS011;37911;51.526;11.536;2022-08-14T01:46:38;13.75;;;8.07;;
51877;SDS011;37911;51.526;11.536;2022-08-14T01:49:43;11.73;;;7.35;;
51877;SDS011;37911;51.526;11.536;2022-08-14T01:52:51;13.90;;;8.40;;
51877;SDS011;37911;51.526;11.536;2022-08-14T01:55:55;14.25;;;9.10;;
51877;SDS011;37911;51.526;11.536;2022-08-14T01:59:01;14.43;;;8.32;;
51877;SDS011;37911;51.526;11.536;2022-08-14T02:02:06;16.23;;;9.27;;
51877;SDS011;37911;51.526;11.536;2022-08-14T02:05:13;15.32;;;9.25;;
51877;SDS011;37911;51.526;11.536;2022-08-14T02:08:19;14.27;;;8.57;;
51877;SDS011;37911;51.526;11.536;2022-08-14T02:11:23;16.48;;;9.45;;
51877;SDS011;37911;51.526;11.536;2022-08-14T02:14:27;14.00;;;7.88;;
51877;SDS011;37911;51.526;11.536;2022-08-14T02:17:32;14.70;;;8.52;;
51877;SDS011;37911;51.526;11.536;2022-08-14T02:20:36;16.63;;;8.18;;
51877;SDS011;37911;51.526;11.536;2022-08-14T02:23:42;12.82;;;7.80;;
51877;SDS011;37911;51.526;11.536;2022-08-14T02:26:46;14.05;;;8.27;;
51877;SDS011;37911;51.526;11.536;2022-08-14T02:29:49;13.65;;;8.65;;
51877;SDS011;37911;51.526;11.536;2022-08-14T02:32:54;12.65;;;7.65;;
51877;SDS011;37911;51.526;11.536;2022-08-14T02:35:58;12.50;;;7.90;;
51877;SDS011;37911;51.526;11.536;2022-08-14T02:39:07;12.95;;;8.02;;
51877;SDS011;37911;51.526;11.536;2022-08-14T02:42:12;12.10;;;8.10;;
51877;SDS011;37911;51.526;11.536;2022-08-14T02:45:20;14.15;;;9.05;;
51877;SDS011;37911;51.526;11.536;2022-08-14T02:48:23;14.32;;;8.60;;
51877;SDS011;37911;51.526;11.536;2022-08-14T02:51:30;16.23;;;8.18;;
51877;SDS011;37911;51.526;11.536;2022-08-14T02:54:37;15.05;;;8.80;;
51877;SDS011;37911;51.526;11.536;2022-08-14T02:57:40;15.27;;;8.65;;
51877;SDS011;37911;51.526;11.536;2022-08-14T03:00:44;16.48;;;8.50;;
51877;SDS011;37911;51.526;11.536;2022-08-14T03:03:48;14.60;;;8.68;;
51877;SDS011;37911;51.526;11.536;2022-08-14T03:06:52;16.17;;;8.93;;
51877;SDS011;37911;51.526;11.536;2022-08-14T03:09:59;16.58;;;8.55;;
51877;SDS011;37911;51.526;11.536;2022-08-14T03:13:02;15.82;;;8.75;;
51877;SDS011;37911;51.526;11.536;2022-08-14T03:16:07;16.17;;;9.35;;
51877;SDS011;37911;51.526;11.536;2022-08-14T03:19:13;13.77;;;8.82;;
51877;SDS011;37911;51.526;11.536;2022-08-14T03:22:17;17.75;;;9.35;;
51877;SDS011;37911;51.526;11.536;2022-08-14T03:25:23;14.77;;;8.30;;
51877;SDS011;37911;51.526;11.536;2022-08-14T03:28:33;14.15;;;8.63;;
51877;SDS011;37911;51.526;11.536;2022-08-14T03:31:39;14.30;;;8.63;;
51877;SDS011;37911;51.526;11.536;2022-08-14T03:34:43;12.70;;;8.30;;
51877;SDS011;37911;51.526;11.536;2022-08-14T03:37:46;14.18;;;9.27;;
51877;SDS011;37911;51.526;11.536;2022-08-14T03:40:54;16.08;;;8.75;;
51877;SDS011;37911;51.526;11.536;2022-08-14T03:43:58;16.10;;;9.00;;
51877;SDS011;37911;51.526;11.536;2022-08-14T03:47:03;13.68;;;7.90;;
51877;SDS011;37911;51.526;11.536;2022-08-14T03:50:08;13.85;;;8.82;;
51877;SDS011;37911;51.526;11.536;2022-08-14T03:53:13;14.30;;;8.82;;
51877;SDS011;37911;51.526;11.536;2022-08-14T03:56:20;14.88;;;9.20;;
51877;SDS011;37911;51.526;11.536;2022-08-14T03:59:25;16.52;;;9.05;;
51877;SDS011;37911;51.526;11.536;2022-08-14T04:02:29;13.68;;;8.90;;
51877;SDS011;37911;51.526;11.536;2022-08-14T04:05:33;14.65;;;9.18;;
51877;SDS011;37911;51.526;11.536;2022-08-14T04:08:38;16.45;;;9.13;;
51877;SDS011;37911;51.526;11.536;2022-08-14T04:11:45;14.98;;;9.07;;
51877;SDS011;37911;51.526;11.536;2022-08-14T04:14:48;12.80;;;8.07;;
51877;SDS011;37911;51.526;11.536;2022-08-14T04:17:52;13.85;;;8.57;;
51877;SDS011;37911;51.526;11.536;2022-08-14T04:20:58;12.93;;;8.55;;
51877;SDS011;37911;51.526;11.536;2022-08-14T04:24:01;15.27;;;8.77;;
51877;SDS011;37911;51.526;11.536;2022-08-14T04:27:08;15.70;;;9.10;;
51877;SDS011;37911;51.526;11.536;2022-08-14T04:30:12;13.07;;;8.15;;
51877;SDS011;37911;51.526;11.536;2022-08-14T04:33:16;14.70;;;8.95;;
51877;SDS011;37911;51.526;11.536;2022-08-14T04:36:19;14.48;;;8.77;;
51877;SDS011;37911;51.526;11.536;2022-08-14T04:39:23;17.27;;;8.93;;
51877;SDS011;37911;51.526;11.536;2022-08-14T04:42:47;16.90;;;9.25;;
51877;SDS011;37911;51.526;11.536;2022-08-14T04:46:03;16.73;;;9.00;;
51877;SDS011;37911;51.526;11.536;2022-08-14T04:49:08;16.83;;;10.27;;
51877;SDS011;37911;51.526;11.536;2022-08-14T04:52:12;17.25;;;9.05;;
51877;SDS011;37911;51.526;11.536;2022-08-14T04:55:16;16.02;;;9.52;;
51877;SDS011;37911;51.526;11.536;2022-08-14T04:58:24;15.55;;;9.65;;
51877;SDS011;37911;51.526;11.536;2022-08-14T05:01:29;16.15;;;9.65;;
51877;SDS011;37911;51.526;11.536;2022-08-14T05:04:32;19.27;;;8.77;;
51877;SDS011;37911;51.526;11.536;2022-08-14T05:07:36;14.07;;;8.10;;
51877;SDS011;37911;51.526;11.536;2022-08-14T05:10:42;14.93;;;8.40;;
51877;SDS011;37911;51.526;11.536;2022-08-14T05:13:52;14.15;;;8.23;;
51877;SDS011;37911;51.526;11.536;2022-08-14T05:16:56;15.05;;;8.85;;
51877;SDS011;37911;51.526;11.536;2022-08-14T05:19:59;15.27;;;9.70;;
51877;SDS011;37911;51.526;11.536;2022-08-14T05:23:03;15.73;;;8.23;;
51877;SDS011;37911;51.526;11.536;2022-08-14T05:26:07;19.50;;;9.18;;
51877;SDS011;37911;51.526;11.536;2022-08-14T05:29:19;15.02;;;9.10;;
51877;SDS011;37911;51.526;11.536;2022-08-14T05:32:23;15.05;;;8.82;;
51877;SDS011;37911;51.526;11.536;2022-08-14T05:35:27;16.13;;;9.27;;
51877;SDS011;37911;51.526;11.536;2022-08-14T05:38:33;17.20;;;9.48;;
51877;SDS011;37911;51.526;11.536;2022-08-14T05:41:38;14.57;;;9.48;;
51877;SDS011;37911;51.526;11.536;2022-08-14T05:44:44;24.40;;;9.48;;
51877;SDS011;37911;51.526;11.536;2022-08-14T05:47:47;15.88;;;9.98;;
51877;SDS011;37911;51.526;11.536;2022-08-14T05:50:51;14.98;;;9.10;;
51877;SDS011;37911;51.526;11.536;2022-08-14T05:53:54;16.85;;;9.93;;
51877;SDS011;37911;51.526;11.536;2022-08-14T05:56:58;20.75;;;10.13;;
51877;SDS011;37911;51.526;11.536;2022-08-14T06:00:05;19.30;;;9.70;;
51877;SDS011;37911;51.526;11.536;2022-08-14T06:03:10;15.60;;;10.18;;
51877;SDS011;37911;51.526;11.536;2022-08-14T06:06:16;19.13;;;9.55;;
51877;SDS011;37911;51.526;11.536;2022-08-14T06:09:20;28.05;;;10.43;;
51877;SDS011;37911;51.526;11.536;2022-08-14T06:12:23;14.73;;;9.70;;
51877;SDS011;37911;51.526;11.536;2022-08-14T06:15:29;19.67;;;9.52;;
51877;SDS011;37911;51.526;11.536;2022-08-14T06:18:32;19.45;;;9.63;;
51877;SDS011;37911;51.526;11.536;2022-08-14T06:21:36;23.10;;;10.35;;
51877;SDS011;37911;51.526;11.536;2022-08-14T06:24:40;19.17;;;10.98;;
51877;SDS011;37911;51.526;11.536;2022-08-14T06:27:44;16.25;;;10.45;;
51877;SDS011;37911;51.526;11.536;2022-08-14T06:30:51;17.70;;;10.75;;
51877;SDS011;37911;51.526;11.536;2022-08-14T06:33:55;19.70;;;11.10;;
51877;SDS011;37911;51.526;11.536;2022-08-14T06:36:59;20.15;;;12.40;;
51877;SDS011;37911;51.526;11.536;2022-08-14T06:40:03;19.75;;;11.98;;
51877;SDS011;37911;51.526;11.536;2022-08-14T06:43:07;18.48;;;11.60;;
51877;SDS011;37911;51.526;11.536;2022-08-14T06:46:15;18.10;;;11.15;;
51877;SDS011;37911;51.526;11.536;2022-08-14T06:49:24;20.70;;;11.82;;
51877;SDS011;37911;51.526;11.536;2022-08-14T06:52:28;18.70;;;11.20;;
51877;SDS011;37911;51.526;11.536;2022-08-14T06:55:31;22.08;;;14.13;;
51877;SDS011;37911;51.526;11.536;2022-08-14T06:58:35;17.95;;;12.20;;
51877;SDS011;37911;51.526;11.536;2022-08-14T07:01:41;18.80;;;11.35;;
51877;SDS011;37911;51.526;11.536;2022-08-14T07:04:57;18.75;;;12.10;;
51877;SDS011;37911;51.526;11.536;2022-08-14T07:08:13;20.10;;;12.63;;
51877;SDS011;37911;51.526;11.536;2022-08-14T07:11:18;17.10;;;10.52;;
51877;SDS011;37911;51.526;11.536;2022-08-14T07:14:22;22.58;;;11.93;;
51877;SDS011;37911;51.526;11.536;2022-08-14T07:17:27;17.60;;;10.73;;
51877;SDS011;37911;51.526;11.536;2022-08-14T07:20:31;17.67;;;10.00;;
51877;SDS011;37911;51.526;11.536;2022-08-14T07:23:35;16.42;;;10.13;;
51877;SDS011;37911;51.526;11.536;2022-08-14T07:26:39;16.65;;;10.05;;
51877;SDS011;37911;51.526;11.536;2022-08-14T07:29:42;14.65;;;9.40;;
51877;SDS011;37911;51.526;11.536;2022-08-14T07:32:48;15.80;;;9.73;;
51877;SDS011;37911;51.526;11.536;2022-08-14T07:35:52;17.35;;;9.55;;
51877;SDS011;37911;51.526;11.536;2022-08-14T07:38:56;17.38;;;9.07;;
51877;SDS011;37911;51.526;11.536;2022-08-14T07:42:00;17.60;;;9.23;;
51877;SDS011;37911;51.526;11.536;2022-08-14T07:45:04;17.25;;;8.20;;
51877;SDS011;37911;51.526;11.536;2022-08-14T07:48:10;13.77;;;8.90;;
51877;SDS011;37911;51.526;11.536;2022-08-14T07:51:14;15.43;;;7.95;;
51877;SDS011;37911;51.526;11.536;2022-08-14T07:54:17;14.27;;;8.63;;
51877;SDS011;37911;51.526;11.536;2022-08-14T07:57:21;15.13;;;8.63;;
51877;SDS011;37911;51.526;11.536;2022-08-14T08:00:26;16.63;;;8.60;;
51877;SDS011;37911;51.526;11.536;2022-08-14T08:03:34;12.70;;;7.72;;
51877;SDS011;37911;51.526;11.536;2022-08-14T08:06:39;14.80;;;9.50;;
51877;SDS011;37911;51.526;11.536;2022-08-14T08:09:51;15.45;;;8.52;;
51877;SDS011;37911;51.526;11.536;2022-08-14T08:12:58;15.70;;;8.43;;
51877;SDS011;37911;51.526;11.536;2022-08-14T08:16:04;14.10;;;8.38;;
51877;SDS011;37911;51.526;11.536;2022-08-14T08:19:10;14.77;;;8.73;;
51877;SDS011;37911;51.526;11.536;2022-08-14T08:22:19;12.88;;;8.25;;
51877;SDS011;37911;51.526;11.536;2022-08-14T08:25:23;14.93;;;8.88;;
51877;SDS011;37911;51.526;11.536;2022-08-14T08:28:27;13.30;;;8.38;;
51877;SDS011;37911;51.526;11.536;2022-08-14T08:31:31;16.50;;;8.38;;
51877;SDS011;37911;51.526;11.536;2022-08-14T08:34:44;15.73;;;8.90;;
51877;SDS011;37911;51.526;11.536;2022-08-14T08:37:49;13.75;;;8.38;;
51877;SDS011;37911;51.526;11.536;2022-08-14T08:40:54;13.75;;;8.43;;
51877;SDS011;37911;51.526;11.536;2022-08-14T08:44:02;13.73;;;7.47;;
51877;SDS011;37911;51.526;11.536;2022-08-14T08:47:06;12.10;;;7.18;;
51877;SDS011;37911;51.526;11.536;2022-08-14T08:50:21;17.60;;;7.85;;
51877;SDS011;37911;51.526;11.536;2022-08-14T08:53:30;15.32;;;8.73;;
51877;SDS011;37911;51.526;11.536;2022-08-14T08:56:35;13.77;;;8.15;;
51877;SDS011;37911;51.526;11.536;2022-08-14T08:59:40;14.57;;;8.68;;
51877;SDS011;37911;51.526;11.536;2022-08-14T09:02:51;12.25;;;7.45;;
51877;SDS011;37911;51.526;11.536;2022-08-14T09:06:01;12.00;;;6.88;;
51877;SDS011;37911;51.526;11.536;2022-08-14T09:09:15;15.02;;;7.35;;
51877;SDS011;37911;51.526;11.536;2022-08-14T09:12:19;12.57;;;6.97;;
51877;SDS011;37911;51.526;11.536;2022-08-14T09:15:23;12.98;;;7.45;;
51877;SDS011;37911;51.526;11.536;2022-08-14T09:18:26;14.40;;;7.53;;
51877;SDS011;37911;51.526;11.536;2022-08-14T09:21:33;13.13;;;7.70;;
51877;SDS011;37911;51.526;11.536;2022-08-14T09:24:36;11.93;;;6.88;;
51877;SDS011;37911;51.526;11.536;2022-08-14T09:27:40;13.73;;;7.00;;
51877;SDS011;37911;51.526;11.536;2022-08-14T09:30:45;16.42;;;7.55;;
51877;SDS011;37911;51.526;11.536;2022-08-14T09:33:57;13.73;;;7.22;;
51877;SDS011;37911;51.526;11.536;2022-08-14T09:40:38;13.93;;;7.95;;
51877;SDS011;37911;51.526;11.536;2022-08-14T09:43:50;12.70;;;7.55;;
51877;SDS011;37911;51.526;11.536;2022-08-14T09:47:00;16.50;;;7.95;;
51877;SDS011;37911;51.526;11.536;2022-08-14T09:50:08;13.02;;;6.38;;
51877;SDS011;37911;51.526;11.536;2022-08-14T09:53:32;24.17;;;12.20;;
51877;SDS011;37911;51.526;11.536;2022-08-14T09:56:43;33.85;;;22.33;;
51877;SDS011;37911;51.526;11.536;2022-08-14T09:59:47;18.17;;;11.23;;
51877;SDS011;37911;51.526;11.536;2022-08-14T10:02:51;17.17;;;10.68;;
51877;SDS011;37911;51.526;11.536;2022-08-14T10:06:03;14.68;;;9.25;;
51877;SDS011;37911;51.526;11.536;2022-08-14T10:09:11;31.17;;;20.35;;
51877;SDS011;37911;51.526;11.536;2022-08-14T10:12:15;23.65;;;14.75;;
51877;SDS011;37911;51.526;11.536;2022-08-14T10:15:19;17.20;;;11.52;;
51877;SDS011;37911;51.526;11.536;2022-08-14T10:18:25;19.73;;;12.77;;
51877;SDS011;37911;51.526;11.536;2022-08-14T10:21:30;19.83;;;10.07;;
51877;SDS011;37911;51.526;11.536;2022-08-14T10:24:38;34.38;;;21.60;;
51877;SDS011;37911;51.526;11.536;2022-08-14T10:27:55;36.42;;;26.55;;
51877;SDS011;37911;51.526;11.536;2022-08-14T10:30:59;27.15;;;18.63;;
51877;SDS011;37911;51.526;11.536;2022-08-14T10:34:03;28.08;;;20.10;;
51877;SDS011;37911;51.526;11.536;2022-08-14T10:37:09;33.60;;;25.52;;
51877;SDS011;37911;51.526;11.536;2022-08-14T10:40:24;20.00;;;14.15;;
51877;SDS011;37911;51.526;11.536;2022-08-14T10:43:28;17.92;;;9.05;;
51877;SDS011;37911;51.526;11.536;2022-08-14T10:46:38;12.80;;;7.55;;
51877;SDS011;37911;51.526;11.536;2022-08-14T10:49:54;14.25;;;8.05;;
51877;SDS011;37911;51.526;11.536;2022-08-14T10:52:59;13.40;;;7.57;;
51877;SDS011;37911;51.526;11.536;2022-08-14T10:56:10;12.25;;;6.75;;
51877;SDS011;37911;51.526;11.536;2022-08-14T10:59:14;10.23;;;6.53;;
51877;SDS011;37911;51.526;11.536;2022-08-14T11:02:18;14.57;;;6.57;;
51877;SDS011;37911;51.526;11.536;2022-08-14T11:05:37;13.30;;;6.22;;
51877;SDS011;37911;51.526;11.536;2022-08-14T11:08:44;12.32;;;5.13;;
51877;SDS011;37911;51.526;11.536;2022-08-14T11:11:55;10.27;;;5.65;;
51877;SDS011;37911;51.526;11.536;2022-08-14T11:14:59;9.00;;;5.65;;
51877;SDS011;37911;51.526;11.536;2022-08-14T11:18:02;8.70;;;5.75;;
51877;SDS011;37911;51.526;11.536;2022-08-14T11:21:07;11.90;;;6.30;;
51877;SDS011;37911;51.526;11.536;2022-08-14T11:24:11;11.10;;;5.43;;
51877;SDS011;37911;51.526;11.536;2022-08-14T11:27:19;11.75;;;5.43;;
51877;SDS011;37911;51.526;11.536;2022-08-14T11:30:25;11.65;;;5.07;;
51877;SDS011;37911;51.526;11.536;2022-08-14T11:33:31;8.05;;;4.80;;
51877;SDS011;37911;51.526;11.536;2022-08-14T11:36:36;9.88;;;5.07;;
51877;SDS011;37911;51.526;11.536;2022-08-14T11:39:43;9.07;;;4.97;;
51877;SDS011;37911;51.526;11.536;2022-08-14T11:42:50;8.80;;;5.35;;
51877;SDS011;37911;51.526;11.536;2022-08-14T11:45:55;9.37;;;5.33;;
51877;SDS011;37911;51.526;11.536;2022-08-14T11:48:59;9.63;;;5.32;;
51877;SDS011;37911;51.526;11.536;2022-08-14T11:52:03;10.75;;;5.35;;
51877;SDS011;37911;51.526;11.536;2022-08-14T11:55:07;9.30;;;5.10;;
51877;SDS011;37911;51.526;11.536;2022-08-14T11:58:15;13.48;;;5.43;;
51877;SDS011;37911;51.526;11.536;2022-08-14T12:01:25;10.10;;;4.78;;
51877;SDS011;37911;51.526;11.536;2022-08-14T12:04:30;8.35;;;4.60;;
51877;SDS011;37911;51.526;11.536;2022-08-14T12:07:34;14.35;;;5.18;;
51877;SDS011;37911;51.526;11.536;2022-08-14T12:10:38;7.72;;;4.38;;
51877;SDS011;37911;51.526;11.536;2022-08-14T12:13:45;8.38;;;4.50;;
51877;SDS011;37911;51.526;11.536;2022-08-14T12:16:58;9.05;;;4.60;;
51877;SDS011;37911;51.526;11.536;2022-08-14T12:20:05;21.10;;;13.07;;
51877;SDS011;37911;51.526;11.536;2022-08-14T12:23:18;17.15;;;10.25;;
51877;SDS011;37911;51.526;11.536;2022-08-14T12:26:26;9.57;;;4.50;;
51877;SDS011;37911;51.526;11.536;2022-08-14T12:29:33;6.68;;;4.50;;
51877;SDS011;37911;51.526;11.536;2022-08-14T12:32:38;8.93;;;4.70;;
51877;SDS011;37911;51.526;11.536;2022-08-14T12:35:42;7.60;;;4.63;;
51877;SDS011;37911;51.526;11.536;2022-08-14T12:38:48;8.75;;;4.50;;
51877;SDS011;37911;51.526;11.536;2022-08-14T12:41:54;12.35;;;4.70;;
51877;SDS011;37911;51.526;11.536;2022-08-14T12:45:09;10.75;;;4.88;;
51877;SDS011;37911;51.526;11.536;2022-08-14T12:48:13;12.90;;;4.45;;
51877;SDS011;37911;51.526;11.536;2022-08-14T12:51:18;10.32;;;4.43;;
51877;SDS011;37911;51.526;11.536;2022-08-14T12:54:28;5.38;;;3.80;;
51877;SDS011;37911;51.526;11.536;2022-08-14T12:57:33;8.32;;;4.07;;
51877;SDS011;37911;51.526;11.536;2022-08-14T13:00:45;11.20;;;5.97;;
51877;SDS011;37911;51.526;11.536;2022-08-14T13:03:50;10.98;;;6.72;;
51877;SDS011;37911;51.526;11.536;2022-08-14T13:07:04;13.98;;;9.40;;
51877;SDS011;37911;51.526;11.536;2022-08-14T13:10:10;18.60;;;10.98;;
51877;SDS011;37911;51.526;11.536;2022-08-14T13:13:16;8.52;;;5.10;;
51877;SDS011;37911;51.526;11.536;2022-08-14T13:16:23;8.23;;;5.07;;
51877;SDS011;37911;51.526;11.536;2022-08-14T13:19:30;9.77;;;5.20;;
51877;SDS011;37911;51.526;11.536;2022-08-14T13:22:35;9.45;;;4.82;;
51877;SDS011;37911;51.526;11.536;2022-08-14T13:25:39;9.68;;;4.82;;
51877;SDS011;37911;51.526;11.536;2022-08-14T13:28:45;8.10;;;4.95;;
51877;SDS011;37911;51.526;11.536;2022-08-14T13:31:54;20.85;;;15.50;;
51877;SDS011;37911;51.526;11.536;2022-08-14T13:34:58;12.15;;;6.65;;
51877;SDS011;37911;51.526;11.536;2022-08-14T13:38:02;8.13;;;4.60;;
51877;SDS011;37911;51.526;11.536;2022-08-14T13:41:05;9.85;;;5.32;;
51877;SDS011;37911;51.526;11.536;2022-08-14T13:44:09;11.00;;;6.88;;
51877;SDS011;37911;51.526;11.536;2022-08-14T13:47:15;8.75;;;5.50;;
51877;SDS011;37911;51.526;11.536;2022-08-14T13:50:19;8.93;;;5.35;;
51877;SDS011;37911;51.526;11.536;2022-08-14T13:53:22;11.25;;;5.20;;
51877;SDS011;37911;51.526;11.536;2022-08-14T13:56:28;11.57;;;5.82;;
51877;SDS011;37911;51.526;11.536;2022-08-14T13:59:33;16.27;;;5.70;;
51877;SDS011;37911;51.526;11.536;2022-08-14T14:02:40;8.55;;;5.53;;
51877;SDS011;37911;51.526;11.536;2022-08-14T14:05:48;9.98;;;5.72;;
51877;SDS011;37911;51.526;11.536;2022-08-14T14:08:54;10.52;;;5.32;;
51877;SDS011;37911;51.526;11.536;2022-08-14T14:11:59;13.25;;;4.95;;
51877;SDS011;37911;51.526;11.536;2022-08-14T14:15:04;9.90;;;5.25;;
51877;SDS011;37911;51.526;11.536;2022-08-14T14:18:11;10.75;;;5.43;;
51877;SDS011;37911;51.526;11.536;2022-08-14T14:21:16;7.63;;;4.68;;
51877;SDS011;37911;51.526;11.536;2022-08-14T14:24:20;8.00;;;5.05;;
51877;SDS011;37911;51.526;11.536;2022-08-14T14:27:23;9.20;;;4.50;;
51877;SDS011;37911;51.526;11.536;2022-08-14T14:30:29;9.25;;;5.18;;
51877;SDS011;37911;51.526;11.536;2022-08-14T14:33:36;8.70;;;4.88;;
51877;SDS011;37911;51.526;11.536;2022-08-14T14:36:47;8.32;;;4.75;;
51877;SDS011;37911;51.526;11.536;2022-08-14T14:39:54;8.32;;;5.15;;
51877;SDS011;37911;51.526;11.536;2022-08-14T14:42:57;9.00;;;5.00;;
51877;SDS011;37911;51.526;11.536;2022-08-14T14:46:04;8.00;;;4.65;;
51877;SDS011;37911;51.526;11.536;2022-08-14T14:49:12;13.07;;;4.88;;
51877;SDS011;37911;51.526;11.536;2022-08-14T14:52:15;8.90;;;4.97;;
51877;SDS011;37911;51.526;11.536;2022-08-14T14:55:22;8.10;;;4.50;;
51877;SDS011;37911;51.526;11.536;2022-08-14T14:58:26;11.77;;;5.30;;
51877;SDS011;37911;51.526;11.536;2022-08-14T15:01:31;10.75;;;5.13;;
51877;SDS011;37911;51.526;11.536;2022-08-14T15:04:39;7.22;;;4.43;;
51877;SDS011;37911;51.526;11.536;2022-08-14T15:07:44;8.25;;;4.80;;
51877;SDS011;37911;51.526;11.536;2022-08-14T15:10:48;10.07;;;4.85;;
51877;SDS011;37911;51.526;11.536;2022-08-14T15:13:52;12.27;;;5.25;;
51877;SDS011;37911;51.526;11.536;2022-08-14T15:16:56;11.88;;;4.72;;
51877;SDS011;37911;51.526;11.536;2022-08-14T15:20:02;9.82;;;5.07;;
51877;SDS011;37911;51.526;11.536;2022-08-14T15:23:06;10.07;;;5.05;;
51877;SDS011;37911;51.526;11.536;2022-08-14T15:26:10;11.88;;;4.80;;
51877;SDS011;37911;51.526;11.536;2022-08-14T15:29:14;10.88;;;4.80;;
51877;SDS011;37911;51.526;11.536;2022-08-14T15:32:18;7.90;;;4.47;;
51877;SDS011;37911;51.526;11.536;2022-08-14T15:35:24;10.80;;;4.63;;
51877;SDS011;37911;51.526;11.536;2022-08-14T15:38:28;6.72;;;4.00;;
51877;SDS011;37911;51.526;11.536;2022-08-14T15:41:31;7.40;;;4.40;;
51877;SDS011;37911;51.526;11.536;2022-08-14T15:44:35;9.02;;;4.63;;
51877;SDS011;37911;51.526;11.536;2022-08-14T15:47:38;6.93;;;4.40;;
51877;SDS011;37911;51.526;11.536;2022-08-14T15:50:44;8.23;;;4.72;;
51877;SDS011;37911;51.526;11.536;2022-08-14T15:53:48;9.55;;;4.60;;
51877;SDS011;37911;51.526;11.536;2022-08-14T15:56:55;10.10;;;5.25;;
51877;SDS011;37911;51.526;11.536;2022-08-14T15:59:59;7.97;;;5.30;;
51877;SDS011;37911;51.526;11.536;2022-08-14T16:03:14;9.88;;;5.60;;
51877;SDS011;37911;51.526;11.536;2022-08-14T16:06:23;9.40;;;5.03;;
51877;SDS011;37911;51.526;11.536;2022-08-14T16:09:29;8.70;;;5.53;;
51877;SDS011;37911;51.526;11.536;2022-08-14T16:12:32;17.30;;;6.03;;
51877;SDS011;37911;51.526;11.536;2022-08-14T16:15:36;9.40;;;5.35;;
51877;SDS011;37911;51.526;11.536;2022-08-14T16:18:40;10.90;;;5.75;;
51877;SDS011;37911;51.526;11.536;2022-08-14T16:21:47;18.15;;;4.88;;
51877;SDS011;37911;51.526;11.536;2022-08-14T16:24:53;18.60;;;5.43;;
51877;SDS011;37911;51.526;11.536;2022-08-14T16:27:57;10.35;;;4.80;;
51877;SDS011;37911;51.526;11.536;2022-08-14T16:31:01;8.93;;;5.03;;
51877;SDS011;37911;51.526;11.536;2022-08-14T16:34:05;9.95;;;5.55;;
51877;SDS011;37911;51.526;11.536;2022-08-14T16:37:12;8.65;;;5.30;;
51877;SDS011;37911;51.526;11.536;2022-08-14T16:40:17;8.02;;;5.07;;
51877;SDS011;37911;51.526;11.536;2022-08-14T16:43:21;7.68;;;4.72;;
51877;SDS011;37911;51.526;11.536;2022-08-14T16:46:25;7.40;;;5.30;;
51877;SDS011;37911;51.526;11.536;2022-08-14T16:49:30;8.23;;;4.68;;
51877;SDS011;37911;51.526;11.536;2022-08-14T16:52:38;6.90;;;4.28;;
51877;SDS011;37911;51.526;11.536;2022-08-14T16:55:42;8.68;;;4.43;;
51877;SDS011;37911;51.526;11.536;2022-08-14T16:58:46;11.48;;;5.25;;
51877;SDS011;37911;51.526;11.536;2022-08-14T17:01:53;10.27;;;4.95;;
51877;SDS011;37911;51.526;11.536;2022-08-14T17:08:23;7.20;;;4.45;;
51877;SDS011;37911;51.526;11.536;2022-08-14T17:11:26;8.88;;;4.70;;
51877;SDS011;37911;51.526;11.536;2022-08-14T17:17:51;10.40;;;5.00;;
51877;SDS011;37911;51.526;11.536;2022-08-14T17:20:55;10.55;;;5.03;;
51877;SDS011;37911;51.526;11.536;2022-08-14T17:24:20;9.40;;;4.97;;
51877;SDS011;37911;51.526;11.536;2022-08-14T17:27:23;11.20;;;5.70;;
51877;SDS011;37911;51.526;11.536;2022-08-14T17:30:27;8.57;;;5.10;;
51877;SDS011;37911;51.526;11.536;2022-08-14T17:33:51;9.13;;;5.40;;
51877;SDS011;37911;51.526;11.536;2022-08-14T17:36:57;11.25;;;5.72;;
51877;SDS011;37911;51.526;11.536;2022-08-14T17:40:06;9.98;;;5.57;;
51877;SDS011;37911;51.526;11.536;2022-08-14T17:43:12;9.55;;;5.90;;
51877;SDS011;37911;51.526;11.536;2022-08-14T17:46:20;11.70;;;5.50;;
51877;SDS011;37911;51.526;11.536;2022-08-14T17:49:36;9.45;;;6.00;;
51877;SDS011;37911;51.526;11.536;2022-08-14T17:52:47;9.40;;;4.88;;
51877;SDS011;37911;51.526;11.536;2022-08-14T17:55:53;12.07;;;5.38;;
51877;SDS011;37911;51.526;11.536;2022-08-14T17:58:58;10.23;;;5.25;;
51877;SDS011;37911;51.526;11.536;2022-08-14T18:02:03;12.80;;;5.70;;
51877;SDS011;37911;51.526;11.536;2022-08-14T18:05:08;13.98;;;5.80;;
51877;SDS011;37911;51.526;11.536;2022-08-14T18:08:13;8.70;;;5.47;;
51877;SDS011;37911;51.526;11.536;2022-08-14T18:11:20;12.85;;;5.80;;
51877;SDS011;37911;51.526;11.536;2022-08-14T18:14:25;10.35;;;5.85;;
51877;SDS011;37911;51.526;11.536;2022-08-14T18:17:29;9.77;;;5.40;;
51877;SDS011;37911;51.526;11.536;2022-08-14T18:20:32;9.73;;;5.80;;